createdAt,value
2018-12-15T00:02:05.587Z,69.60
2018-12-15T00:04:39.327Z,69.60
2018-12-15T00:07:26.275Z,69.60
2018-12-15T00:09:58.215Z,69.60
2018-12-15T00:12:39.991Z,69.70
2018-12-15T00:15:11.950Z,69.60
2018-12-15T00:18:09.178Z,69.60
2018-12-15T00:20:40.804Z,69.60
2018-12-15T00:23:31.657Z,69.60
2018-12-15T00:26:03.479Z,69.60
2018-12-15T00:28:44.692Z,69.30
2018-12-15T00:31:16.586Z,69.60
2018-12-15T00:34:04.240Z,69.60
2018-12-15T00:36:36.114Z,69.60
2018-12-15T00:39:17.623Z,69.50
2018-12-15T00:41:49.186Z,69.50
2018-12-15T00:44:30.376Z,69.50
2018-12-15T00:47:01.895Z,69.40
2018-12-15T00:49:46.868Z,69.40
2018-12-15T00:52:18.584Z,69.40
2018-12-15T00:55:03.228Z,69.30
2018-12-15T00:57:34.863Z,69.30
2018-12-15T01:00:19.799Z,69.30
2018-12-15T01:02:51.953Z,69.30
2018-12-15T01:05:33.347Z,69.30
2018-12-15T01:08:05.379Z,69.20
2018-12-15T01:10:46.609Z,69.20
2018-12-15T01:13:18.592Z,69.30
2018-12-15T01:16:06.358Z,69.20
2018-12-15T01:18:38.263Z,69.10
2018-12-15T01:47:27.162Z,69.10
2018-12-15T01:49:58.840Z,69.00
2018-12-15T01:52:40.055Z,70.00
2018-12-15T01:55:11.783Z,69.10
2018-12-15T01:57:56.856Z,68.70
2018-12-15T02:00:28.568Z,69.10
2018-12-15T02:03:09.959Z,69.80
2018-12-15T02:05:42.156Z,69.10
2018-12-15T02:08:23.301Z,69.00
2018-12-15T02:10:57.373Z,68.90
2018-12-15T02:13:45.386Z,69.00
2018-12-15T02:16:17.399Z,68.90
2018-12-15T02:18:58.890Z,69.00
2018-12-15T02:21:30.623Z,69.70
2018-12-15T02:37:30.111Z,68.80
2018-12-15T02:40:02.047Z,68.80
2018-12-15T02:42:47.038Z,68.80
2018-12-15T02:45:18.537Z,68.80
2018-12-15T02:48:00.346Z,68.80
2018-12-15T02:50:32.240Z,68.80
2018-12-15T02:53:22.124Z,68.70
2018-12-15T02:55:54.079Z,69.50
2018-12-15T02:58:39.009Z,68.70
2018-12-15T03:01:11.075Z,68.60
2018-12-15T03:03:52.253Z,68.60
2018-12-15T03:06:24.332Z,68.50
2018-12-15T03:09:07.745Z,68.50
2018-12-15T03:11:42.102Z,68.50
2018-12-15T03:27:33.830Z,68.20
2018-12-15T03:30:05.965Z,68.20
2018-12-15T03:32:56.868Z,68.40
2018-12-15T03:35:28.520Z,68.30
2018-12-15T03:38:09.843Z,68.30
2018-12-15T03:40:41.943Z,68.10
2018-12-15T03:43:23.124Z,68.00
2018-12-15T03:45:54.947Z,68.10
2018-12-15T03:48:36.315Z,68.00
2018-12-15T03:51:08.003Z,67.90
2018-12-15T03:53:49.657Z,67.90
2018-12-15T03:56:21.570Z,67.90
2018-12-15T03:59:02.934Z,67.80
2018-12-15T04:01:35.846Z,67.70
2018-12-15T04:04:16.934Z,67.70
2018-12-15T04:06:48.696Z,67.70
2018-12-15T04:09:30.066Z,67.60
2018-12-15T04:12:01.635Z,67.40
2018-12-15T04:14:46.379Z,67.30
2018-12-15T04:17:18.196Z,67.30
2018-12-15T04:20:09.142Z,67.20
2018-12-15T04:22:41.191Z,67.10
2018-12-15T04:25:22.534Z,66.90
2018-12-15T04:27:54.219Z,66.70
2018-12-15T04:30:39.112Z,66.70
2018-12-15T04:33:10.771Z,66.70
2018-12-15T04:35:52.264Z,66.60
2018-12-15T04:38:23.985Z,66.60
2018-12-15T04:41:05.548Z,66.40
2018-12-15T04:43:37.441Z,66.40
2018-12-15T04:46:25.501Z,66.20
2018-12-15T04:48:57.104Z,66.60
2018-12-15T04:51:38.360Z,66.60
2018-12-15T04:54:09.975Z,66.60
2018-12-15T04:56:54.870Z,66.70
2018-12-15T04:59:26.793Z,66.60
2018-12-15T05:02:08.270Z,66.80
2018-12-15T05:04:39.965Z,66.70
2018-12-15T05:07:21.903Z,66.80
2018-12-15T05:09:53.561Z,66.80
2018-12-15T05:12:38.649Z,66.90
2018-12-15T05:15:10.671Z,66.80
2018-12-15T05:17:51.909Z,66.90
2018-12-15T05:20:23.891Z,66.90
2018-12-15T05:23:05.712Z,66.90
2018-12-15T05:25:37.680Z,66.90
2018-12-15T05:28:19.109Z,67.70
2018-12-15T05:30:51.049Z,66.90
2018-12-15T05:33:32.256Z,67.00
2018-12-15T05:36:04.065Z,67.10
2018-12-15T05:38:49.091Z,67.10
2018-12-15T05:41:21.090Z,67.20
2018-12-15T05:44:05.991Z,67.30
2018-12-15T05:46:37.905Z,67.40
2018-12-15T05:49:19.067Z,67.40
2018-12-15T05:51:50.977Z,67.50
2018-12-15T05:54:32.450Z,67.50
2018-12-15T05:57:05.334Z,67.60
2018-12-15T05:59:46.694Z,67.60
2018-12-15T06:02:19.208Z,67.60
2018-12-15T06:05:01.052Z,67.60
2018-12-15T06:07:32.888Z,67.60
2018-12-15T06:10:21.010Z,67.60
2018-12-15T06:12:52.759Z,67.60
2018-12-15T06:15:37.811Z,67.70
2018-12-15T06:18:09.545Z,67.60
2018-12-15T06:20:50.919Z,67.60
2018-12-15T06:23:22.937Z,67.70
2018-12-15T06:26:07.957Z,67.70
2018-12-15T06:28:40.237Z,67.70
2018-12-15T06:31:21.516Z,67.70
2018-12-15T06:33:53.310Z,67.70
2018-12-15T06:36:38.544Z,67.70
2018-12-15T06:39:10.095Z,67.70
2018-12-15T06:41:52.007Z,67.80
2018-12-15T06:44:23.995Z,67.70
2018-12-15T06:47:05.203Z,67.80
2018-12-15T06:49:37.384Z,67.70
2018-12-15T06:52:22.431Z,67.70
2018-12-15T06:54:54.171Z,67.60
2018-12-15T06:57:41.770Z,67.60
2018-12-15T07:00:13.951Z,67.60
2018-12-15T07:02:55.555Z,67.70
2018-12-15T07:05:27.206Z,68.40
2018-12-15T07:08:12.129Z,67.70
2018-12-15T07:10:43.962Z,67.70
2018-12-15T07:13:29.167Z,67.70
2018-12-15T07:16:00.843Z,67.60
2018-12-15T07:18:45.016Z,67.60
2018-12-15T07:21:16.906Z,67.60
2018-12-15T07:23:58.869Z,67.60
2018-12-15T07:26:31.127Z,67.60
2018-12-15T07:29:12.358Z,67.50
2018-12-15T07:31:44.619Z,67.50
2018-12-15T07:34:30.253Z,67.60
2018-12-15T07:37:01.794Z,67.40
2018-12-15T07:39:46.838Z,67.50
2018-12-15T07:42:18.838Z,67.40
2018-12-15T07:45:00.648Z,67.40
2018-12-15T07:47:33.114Z,67.40
2018-12-15T07:50:14.616Z,67.40
2018-12-15T07:52:46.191Z,68.20
2018-12-15T07:55:34.523Z,67.40
2018-12-15T07:58:06.585Z,67.40
2018-12-15T08:00:51.510Z,67.40
2018-12-15T08:03:23.319Z,67.50
2018-12-15T08:06:08.600Z,67.50
2018-12-15T08:08:40.204Z,67.40
2018-12-15T08:11:26.805Z,67.40
2018-12-15T08:14:04.004Z,67.30
2018-12-15T08:16:49.388Z,67.20
2018-12-15T08:19:20.951Z,67.00
2018-12-15T08:22:07.988Z,66.90
2018-12-15T08:24:40.129Z,66.80
2018-12-15T08:27:21.457Z,66.90
2018-12-15T08:29:53.035Z,67.00
2018-12-15T08:32:34.699Z,66.90
2018-12-15T08:35:06.633Z,66.90
2018-12-15T08:37:47.890Z,66.70
2018-12-15T08:40:20.127Z,66.70
2018-12-15T08:43:08.202Z,66.60
2018-12-15T08:45:41.493Z,66.60
2018-12-15T08:48:23.200Z,66.60
2018-12-15T08:50:56.473Z,66.50
2018-12-15T08:53:37.706Z,66.60
2018-12-15T08:56:09.690Z,66.40
2018-12-15T08:58:57.461Z,66.40
2018-12-15T09:01:29.339Z,66.40
2018-12-15T09:04:14.412Z,66.30
2018-12-15T09:06:46.049Z,66.30
2018-12-15T09:09:31.026Z,66.30
2018-12-15T09:12:03.006Z,66.30
2018-12-15T09:14:44.620Z,66.20
2018-12-15T09:17:19.515Z,66.20
2018-12-15T09:20:06.731Z,66.30
2018-12-15T09:22:38.790Z,66.40
2018-12-15T09:25:23.360Z,66.40
2018-12-15T09:32:43.584Z,66.20
2018-12-15T09:35:15.167Z,66.10
2018-12-15T09:37:59.809Z,66.20
2018-12-15T09:40:31.376Z,66.20
2018-12-15T09:43:35.662Z,65.40
2018-12-15T09:46:07.220Z,66.10
2018-12-15T09:48:51.754Z,65.90
2018-12-15T09:51:23.180Z,65.70
2018-12-15T10:07:27.328Z,65.10
2018-12-15T10:09:58.668Z,65.30
2018-12-15T10:12:46.373Z,65.30
2018-12-15T10:15:17.775Z,65.40
2018-12-15T10:18:02.259Z,65.60
2018-12-15T10:20:33.724Z,65.60
2018-12-15T10:36:37.803Z,65.70
2018-12-15T10:39:10.082Z,65.80
2018-12-15T10:41:57.672Z,65.90
2018-12-15T10:44:29.324Z,66.00
2018-12-15T10:47:14.000Z,66.00
2018-12-15T10:49:47.489Z,66.00
2018-12-15T10:52:32.455Z,66.00
2018-12-15T10:55:04.034Z,66.00
2018-12-15T10:57:48.791Z,65.90
2018-12-15T11:03:11.974Z,65.90
2018-12-15T11:05:43.736Z,66.00
2018-12-15T11:08:24.833Z,65.90
2018-12-15T11:10:56.315Z,66.00
2018-12-15T11:13:37.476Z,65.90
2018-12-15T11:16:09.413Z,66.00
2018-12-15T11:18:53.983Z,65.80
2018-12-15T11:21:25.447Z,65.80
2018-12-15T11:24:12.927Z,65.80
2018-12-15T11:26:44.369Z,65.80
2018-12-15T11:29:25.611Z,65.80
2018-12-15T11:31:56.996Z,65.80
2018-12-15T11:34:38.804Z,65.80
2018-12-15T11:37:10.178Z,65.80
2018-12-15T11:52:56.090Z,65.30
2018-12-15T11:55:27.711Z,65.60
2018-12-15T11:58:10.041Z,65.50
2018-12-15T12:00:41.591Z,65.50
2018-12-15T12:03:26.198Z,65.50
2018-12-15T12:05:57.612Z,65.40
2018-12-15T12:08:38.662Z,65.50
2018-12-15T12:11:10.130Z,65.30
2018-12-15T12:14:01.703Z,65.30
2018-12-15T12:16:45.525Z,65.20
2018-12-15T12:19:16.911Z,65.30
2018-12-15T12:21:48.509Z,65.20
2018-12-15T12:24:29.788Z,65.10
2018-12-15T12:27:03.272Z,65.20
2018-12-15T12:29:44.730Z,65.20
2018-12-15T12:32:16.316Z,65.20
2018-12-15T12:34:57.436Z,65.30
2018-12-15T12:37:28.979Z,65.10
2018-12-15T12:40:10.838Z,65.10
2018-12-15T12:42:42.347Z,65.00
2018-12-15T12:45:23.755Z,65.00
2018-12-15T12:47:55.325Z,65.20
2018-12-15T12:50:39.935Z,65.10
2018-12-15T12:53:11.733Z,65.00
2018-12-15T12:55:59.715Z,65.00
2018-12-15T12:58:32.408Z,65.00
2018-12-15T13:01:17.598Z,65.10
2018-12-15T13:03:49.229Z,65.00
2018-12-15T13:06:33.856Z,64.90
2018-12-15T13:09:07.954Z,65.00
2018-12-15T13:11:54.395Z,64.90
2018-12-15T13:14:26.013Z,65.00
2018-12-15T13:17:17.331Z,65.00
2018-12-15T13:19:49.164Z,65.00
2018-12-15T13:22:36.952Z,65.10
2018-12-15T13:25:08.573Z,65.10
2018-12-15T13:27:49.736Z,65.10
2018-12-15T13:30:21.653Z,65.10
2018-12-15T13:33:22.124Z,66.00
2018-12-15T13:35:53.977Z,65.10
2018-12-15T13:38:48.698Z,65.10
2018-12-15T13:41:20.468Z,65.10
2018-12-15T13:44:01.851Z,65.10
2018-12-15T13:46:34.909Z,65.10
2018-12-15T13:49:20.057Z,65.10
2018-12-15T13:51:51.677Z,65.20
2018-12-15T13:54:33.299Z,65.30
2018-12-15T13:57:05.297Z,65.30
2018-12-15T13:59:59.240Z,65.40
2018-12-15T14:02:31.246Z,65.30
2018-12-15T14:05:19.463Z,65.30
2018-12-15T14:07:51.027Z,65.10
2018-12-15T14:10:38.631Z,65.30
2018-12-15T14:13:10.372Z,65.20
2018-12-15T14:15:52.253Z,65.30
2018-12-15T14:18:23.862Z,65.30
2018-12-15T14:21:11.668Z,65.40
2018-12-15T14:23:43.677Z,65.50
2018-12-15T14:26:32.023Z,66.10
2018-12-15T14:29:05.126Z,65.50
2018-12-15T14:31:56.550Z,65.50
2018-12-15T14:34:28.824Z,65.50
2018-12-15T14:37:11.084Z,65.50
2018-12-15T14:39:43.510Z,65.50
2018-12-15T14:42:25.510Z,65.60
2018-12-15T14:44:57.527Z,65.80
2018-12-15T14:47:43.838Z,65.80
2018-12-15T14:50:16.241Z,65.80
2018-12-15T14:53:02.286Z,65.90
2018-12-15T14:55:34.945Z,65.80
2018-12-15T14:58:20.927Z,65.90
2018-12-15T15:00:56.480Z,65.90
2018-12-15T15:03:42.675Z,65.90
2018-12-15T15:06:15.531Z,66.00
2018-12-15T15:09:05.684Z,65.90
2018-12-15T15:11:39.682Z,66.00
2018-12-15T15:14:12.664Z,66.10
2018-12-15T15:17:00.112Z,66.10
2018-12-15T15:19:32.347Z,66.10
2018-12-15T15:22:18.351Z,66.10
2018-12-15T15:24:51.721Z,66.20
2018-12-15T15:27:34.893Z,66.20
2018-12-15T15:30:09.197Z,66.20
2018-12-15T15:32:54.641Z,66.20
2018-12-15T15:35:26.835Z,66.20
2018-12-15T15:38:11.992Z,66.30
2018-12-15T15:40:44.068Z,66.40
2018-12-15T15:43:29.189Z,66.40
2018-12-15T15:46:01.095Z,66.40
2018-12-15T15:48:46.236Z,66.40
2018-12-15T15:51:18.146Z,66.50
2018-12-15T15:54:15.323Z,66.50
2018-12-15T15:56:47.539Z,66.60
2018-12-15T15:59:29.069Z,66.60
2018-12-15T16:02:01.178Z,66.70
2018-12-15T16:04:46.986Z,66.70
2018-12-15T16:07:19.270Z,67.30
2018-12-15T16:10:05.414Z,66.90
2018-12-15T16:12:37.283Z,66.80
2018-12-15T16:15:18.374Z,66.90
2018-12-15T16:17:50.652Z,66.90
2018-12-15T16:20:32.034Z,66.90
2018-12-15T16:23:04.104Z,67.70
2018-12-15T16:25:48.938Z,67.00
2018-12-15T16:28:21.311Z,67.10
2018-12-15T16:31:03.376Z,67.10
2018-12-15T16:33:35.095Z,67.10
2018-12-15T16:36:19.892Z,67.00
2018-12-15T16:38:51.357Z,67.00
2018-12-15T16:41:42.057Z,67.70
2018-12-15T16:44:09.055Z,67.10
2018-12-15T16:46:50.546Z,67.10
2018-12-15T16:49:22.027Z,67.10
2018-12-15T16:52:04.057Z,67.10
2018-12-15T16:54:35.688Z,67.10
2018-12-15T16:57:23.302Z,67.10
2018-12-15T16:59:54.920Z,67.10
2018-12-15T17:02:37.014Z,67.10
2018-12-15T17:05:09.032Z,67.10
2018-12-15T17:07:51.499Z,67.10
2018-12-15T17:10:23.239Z,67.20
2018-12-15T17:13:05.605Z,67.20
2018-12-15T17:15:37.323Z,67.10
2018-12-15T17:18:22.054Z,67.10
2018-12-15T17:20:56.866Z,67.20
2018-12-15T17:23:40.550Z,67.20
2018-12-15T17:26:12.118Z,67.20
2018-12-15T17:28:56.888Z,67.40
2018-12-15T17:31:28.852Z,67.40
2018-12-15T17:34:13.498Z,67.40
2018-12-15T17:36:45.191Z,67.30
2018-12-15T17:39:30.067Z,67.30
2018-12-15T17:42:01.696Z,67.40
2018-12-15T17:44:43.458Z,67.40
2018-12-15T17:47:15.170Z,67.40
2018-12-15T17:50:02.965Z,67.30
2018-12-15T17:52:36.537Z,67.40
2018-12-15T17:55:17.693Z,67.50
2018-12-15T17:57:49.673Z,67.60
2018-12-15T18:00:31.676Z,67.70
2018-12-15T18:03:03.459Z,67.70
2018-12-15T18:05:44.909Z,67.70
2018-12-15T18:08:16.451Z,68.40
2018-12-15T18:11:16.898Z,67.60
2018-12-15T18:13:48.639Z,67.80
2018-12-15T18:16:33.311Z,67.80
2018-12-15T18:19:12.053Z,67.80
2018-12-15T18:21:53.469Z,67.90
2018-12-15T18:24:25.182Z,67.90
2018-12-15T18:27:06.494Z,67.80
2018-12-15T18:29:38.217Z,67.80
2018-12-15T18:32:23.002Z,67.80
2018-12-15T18:34:55.127Z,67.90
2018-12-15T18:50:47.662Z,67.90
2018-12-15T18:53:20.469Z,68.00
2018-12-15T18:56:02.211Z,68.10
2018-12-15T18:58:33.707Z,68.30
2018-12-15T19:01:18.936Z,68.20
2018-12-15T19:03:50.647Z,68.30
2018-12-15T19:06:35.430Z,68.20
2018-12-15T19:09:09.680Z,68.30
2018-12-15T19:12:08.871Z,68.30
2018-12-15T19:14:40.449Z,68.40
2018-12-15T19:17:28.255Z,68.30
2018-12-15T19:20:00.820Z,69.10
2018-12-15T19:22:46.911Z,68.40
2018-12-15T19:25:20.901Z,68.60
2018-12-15T19:28:02.341Z,68.70
2018-12-15T19:30:34.331Z,68.80
2018-12-15T19:33:28.668Z,68.90
2018-12-15T19:36:00.586Z,68.90
2018-12-15T19:51:47.171Z,69.40
2018-12-15T19:54:19.389Z,69.40
2018-12-15T19:57:00.816Z,69.60
2018-12-15T19:59:32.961Z,69.60
2018-12-15T20:15:24.940Z,70.10
2018-12-15T20:17:57.115Z,70.10
2018-12-15T20:20:42.104Z,70.10
2018-12-15T20:23:14.555Z,70.20
2018-12-15T20:25:56.216Z,70.20
2018-12-15T20:28:28.311Z,70.20
2018-12-15T20:44:11.208Z,70.40
2018-12-15T20:46:43.061Z,70.30
2018-12-15T20:49:28.273Z,70.40
2018-12-15T20:52:00.113Z,70.40
2018-12-15T20:54:51.469Z,70.50
2018-12-15T20:57:23.449Z,70.40
2018-12-15T21:00:17.686Z,70.40
2018-12-15T21:02:49.642Z,70.40
2018-12-15T21:05:21.638Z,70.30
2018-12-15T21:07:53.410Z,70.40
2018-12-15T21:10:34.678Z,70.40
2018-12-15T21:13:06.477Z,70.30
2018-12-15T21:15:57.891Z,70.20
2018-12-15T21:18:29.855Z,70.20
2018-12-15T21:21:11.491Z,70.20
2018-12-15T21:23:43.231Z,70.10
2018-12-15T21:39:41.652Z,69.80
2018-12-15T21:42:14.049Z,69.80
2018-12-15T21:44:59.404Z,69.70
2018-12-15T21:47:31.584Z,69.70
2018-12-15T21:50:13.618Z,69.70
2018-12-15T21:52:45.607Z,69.80
2018-12-15T21:55:27.604Z,69.80
2018-12-15T21:57:59.892Z,69.80
2018-12-15T22:00:45.142Z,69.70
2018-12-15T22:03:17.150Z,69.80
2018-12-15T22:05:59.302Z,69.70
2018-12-15T22:08:31.026Z,69.90
2018-12-15T22:11:12.955Z,69.90
2018-12-15T22:13:45.624Z,69.80
2018-12-15T22:16:31.724Z,69.80
2018-12-15T22:19:03.687Z,70.00
2018-12-15T22:21:49.061Z,70.10
2018-12-15T22:24:21.465Z,70.20
2018-12-15T22:27:03.504Z,70.20
2018-12-15T22:29:35.456Z,70.20
2018-12-15T22:32:17.152Z,70.30
2018-12-15T22:34:49.037Z,70.20
2018-12-15T22:37:33.492Z,70.40
2018-12-15T22:40:06.577Z,70.40
2018-12-15T22:42:47.922Z,70.50
2018-12-15T22:45:19.780Z,70.40
2018-12-15T22:48:01.293Z,70.30
2018-12-15T22:50:34.297Z,70.20
2018-12-15T22:53:16.364Z,70.40
2018-12-15T22:55:48.465Z,70.40
2018-12-15T22:58:33.693Z,70.40
2018-12-15T23:01:10.918Z,70.50
2018-12-15T23:03:54.530Z,70.60
2018-12-15T23:06:27.742Z,70.60
2018-12-15T23:09:10.067Z,70.60
2018-12-15T23:11:42.387Z,70.50
2018-12-15T23:14:27.728Z,70.40
2018-12-15T23:16:59.911Z,70.50
2018-12-15T23:19:41.818Z,70.30
2018-12-15T23:22:16.390Z,71.10
2018-12-15T23:24:57.613Z,70.00
2018-12-15T23:27:29.883Z,70.30
2018-12-15T23:30:11.639Z,70.30
2018-12-15T23:32:44.055Z,70.20
2018-12-15T23:35:25.882Z,70.20
2018-12-15T23:37:58.180Z,70.30
2018-12-15T23:40:40.045Z,70.30
2018-12-15T23:43:12.048Z,70.30
2018-12-15T23:45:53.816Z,70.20
2018-12-15T23:48:26.366Z,70.20
2018-12-15T23:51:12.526Z,70.20
2018-12-15T23:53:45.050Z,70.30
2018-12-15T23:56:26.891Z,70.10
2018-12-15T23:58:58.873Z,70.10
